Observation data for Northwest San Angelo on 08/14/2019      Previous  Date  Next       Current Mesonet Observations  Soil Data  Daily Summary Page  Observations in Plain Language
KASU 140500Z 20004KT 28/17 A2997 RMK A01 T02760169  RH  055%=      5-min Rain = 0
KASU 140505Z 20003KT 27/17 A2997 RMK A01 T02740170  RH  056%=      5-min Rain = 0
KASU 140510Z 20004KT 27/17 A2997 RMK A01 T02740169  RH  056%=      5-min Rain = 0
KASU 140515Z 21003KT 28/17 A2998 RMK A01 T02750168  RH  055%=      5-min Rain = 0
KASU 140520Z 22003KT 28/17 A2998 RMK A01 T02750168  RH  055%=      5-min Rain = 0
KASU 140525Z 22003KT 28/17 A2998 RMK A01 T02750167  RH  054%=      5-min Rain = 0
KASU 140530Z 23003KT 27/17 A2998 RMK A01 T02740166  RH  054%=      5-min Rain = 0
KASU 140535Z 23004KT 28/17 A2998 RMK A01 T02770166  RH  053%=      5-min Rain = 0
KASU 140540Z 24002KT 28/17 A2998 RMK A01 T02760166  RH  054%=      5-min Rain = 0
KASU 140545Z 19002KT 27/17 A2998 RMK A01 T02740167  RH  055%=      5-min Rain = 0
KASU 140550Z 16002KT 27/17 A2998 RMK A01 T02670167  RH  057%=      5-min Rain = 0
KASU 140555Z 18003KT 26/17 A2998 RMK A01 T02630166  RH  058%=      5-min Rain = 0
KASU 140600Z 20003KT 27/16 A2998 RMK A01 T02660160  RH  055%=      5-min Rain = 0
KASU 140605Z 20003KT 27/17 A2998 RMK A01 T02680165  RH  056%=      5-min Rain = 0
KASU 140610Z 20003KT 27/17 A2998 RMK A01 T02670166  RH  057%=      5-min Rain = 0
KASU 140615Z 19004KT 27/17 A2998 RMK A01 T02650166  RH  057%=      5-min Rain = 0
KASU 140620Z 19003KT 26/17 A2998 RMK A01 T02640166  RH  057%=      5-min Rain = 0
KASU 140625Z 19004KT 26/17 A2998 RMK A01 T02630167  RH  058%=      5-min Rain = 0
KASU 140630Z 16004KT 26/17 A2999 RMK A01 T02630167  RH  058%=      5-min Rain = 0
KASU 140635Z 15004KT 26/17 A2999 RMK A01 T02600167  RH  060%=      5-min Rain = 0
KASU 140640Z 16004KT 26/17 A2999 RMK A01 T02590169  RH  060%=      5-min Rain = 0
KASU 140645Z 17002KT 26/17 A30 RMK A01 T02610170  RH  060%=      5-min Rain = 0
KASU 140650Z 18002KT 26/17 A30 RMK A01 T02610170  RH  060%=      5-min Rain = 0
KASU 140655Z 19001KT 26/17 A30 RMK A01 T02610171  RH  061%=      5-min Rain = 0
KASU 140700Z 18002KT 26/17 A30 RMK A01 T02620172  RH  061%=      5-min Rain = 0
KASU 140705Z 21003KT 26/17 A30 RMK A01 T02620171  RH  060%=      5-min Rain = 0
KASU 140710Z 21003KT 26/17 A30 RMK A01 T02640172  RH  060%=      5-min Rain = 0
KASU 140715Z 23003KT 27/17 A30 RMK A01 T02660171  RH  059%=      5-min Rain = 0
KASU 140720Z 23002KT 27/17 A2999 RMK A01 T02650171  RH  059%=      5-min Rain = 0
KASU 140725Z 23003KT 26/17 A2999 RMK A01 T02640172  RH  060%=      5-min Rain = 0
KASU 140730Z 24003KT 26/17 A2999 RMK A01 T02630172  RH  060%=      5-min Rain = 0
KASU 140735Z 25004KT 26/17 A2999 RMK A01 T02630173  RH  061%=      5-min Rain = 0
KASU 140740Z 26004KT 26/17 A2999 RMK A01 T02630173  RH  060%=      5-min Rain = 0
KASU 140745Z 27003KT 26/17 A2999 RMK A01 T02640172  RH  060%=      5-min Rain = 0
KASU 140750Z 28002KT 26/17 A2999 RMK A01 T02620171  RH  060%=      5-min Rain = 0
KASU 140755Z 12000KT 26/17 A2999 RMK A01 T02590172  RH  061%=      5-min Rain = 0
KASU 140800Z 10002KT 25/17 A2999 RMK A01 T02500172  RH  065%=      5-min Rain = 0
KASU 140805Z 10002KT 24/17 A2999 RMK A01 T02440172  RH  067%=      5-min Rain = 0
KASU 140810Z 13001KT 24/17 A2999 RMK A01 T02430173  RH  068%=      5-min Rain = 0
KASU 140815Z 15001KT 25/17 A2999 RMK A01 T02450173  RH  068%=      5-min Rain = 0
KASU 140820Z 12003KT 24/17 A2999 RMK A01 T02430172  RH  068%=      5-min Rain = 0
KASU 140825Z 12003KT 24/17 A2999 RMK A01 T02420172  RH  068%=      5-min Rain = 0
KASU 140830Z 11003KT 24/17 A2999 RMK A01 T02400172  RH  069%=      5-min Rain = 0
KASU 140835Z 10003KT 24/17 A2999 RMK A01 T02390172  RH  070%=      5-min Rain = 0
KASU 140840Z 11003KT 24/17 A2999 RMK A01 T02380173  RH  070%=      5-min Rain = 0
KASU 140845Z 10003KT 24/17 A2999 RMK A01 T02380173  RH  071%=      5-min Rain = 0
KASU 140850Z 11004KT 24/17 A2999 RMK A01 T02380173  RH  070%=      5-min Rain = 0
KASU 140855Z 11004KT 24/17 A2999 RMK A01 T02370173  RH  071%=      5-min Rain = 0
KASU 140900Z 11004KT 24/17 A2999 RMK A01 T02380173  RH  070%=      5-min Rain = 0
KASU 140905Z 11004KT 24/17 A2999 RMK A01 T02400174  RH  070%=      5-min Rain = 0
KASU 140910Z 11003KT 24/17 A2999 RMK A01 T02410174  RH  070%=      5-min Rain = 0
KASU 140915Z 13003KT 24/17 A2999 RMK A01 T02410174  RH  069%=      5-min Rain = 0
KASU 140920Z 13003KT 24/17 A2999 RMK A01 T02410173  RH  069%=      5-min Rain = 0
KASU 140925Z 15004KT 24/17 A2999 RMK A01 T02410173  RH  069%=      5-min Rain = 0
KASU 140930Z 17003KT 24/17 A2999 RMK A01 T02430173  RH  068%=      5-min Rain = 0
KASU 140935Z 18002KT 25/17 A2999 RMK A01 T02450172  RH  067%=      5-min Rain = 0
KASU 140940Z 15001KT 25/17 A2999 RMK A01 T02450172  RH  067%=      5-min Rain = 0
KASU 140945Z 13001KT 25/17 A2999 RMK A01 T02450172  RH  067%=      5-min Rain = 0
KASU 140950Z 13001KT 24/17 A2999 RMK A01 T02430172  RH  068%=      5-min Rain = 0
KASU 140955Z 13001KT 24/17 A2999 RMK A01 T02410172  RH  068%=      5-min Rain = 0
KASU 141000Z 14002KT 24/17 A2999 RMK A01 T02410172  RH  069%=      5-min Rain = 0
KASU 141005Z 16001KT 24/17 A2999 RMK A01 T02400170  RH  068%=      5-min Rain = 0
KASU 141010Z 16000KT 24/17 A2999 RMK A01 T02390169  RH  068%=      5-min Rain = 0
KASU 141015Z 18000KT 24/17 A2999 RMK A01 T02390167  RH  067%=      5-min Rain = 0
KASU 141020Z 00000KT 24/17 A2999 RMK A01 T02410169  RH  067%=      5-min Rain = 0
KASU 141025Z 00000KT 24/17 A2999 RMK A01 T02430169  RH  067%=      5-min Rain = 0
KASU 141030Z 00000KT 24/17 A2999 RMK A01 T02430171  RH  067%=      5-min Rain = 0
KASU 141035Z 00000KT 24/17 A2999 RMK A01 T02420172  RH  068%=      5-min Rain = 0
KASU 141040Z 00000KT 24/17 A2999 RMK A01 T02410172  RH  069%=      5-min Rain = 0
KASU 141045Z 28000KT 24/16 A2999 RMK A01 T02380163  RH  066%=      5-min Rain = 0
KASU 141050Z 00000KT 24/16 A2999 RMK A01 T02390162  RH  065%=      5-min Rain = 0
KASU 141055Z 00000KT 24/16 A30 RMK A01 T02380164  RH  066%=      5-min Rain = 0
KASU 141100Z 18000KT 24/17 A30 RMK A01 T02360168  RH  069%=      5-min Rain = 0
KASU 141105Z 20001KT 24/17 A30 RMK A01 T02350169  RH  070%=      5-min Rain = 0
KASU 141110Z 21002KT 24/17 A30 RMK A01 T02350168  RH  070%=      5-min Rain = 0
KASU 141115Z 22001KT 24/17 A30 RMK A01 T02360168  RH  069%=      5-min Rain = 0
KASU 141120Z 30001KT 24/17 A3001 RMK A01 T02390169  RH  068%=      5-min Rain = 0
KASU 141125Z 32002KT 24/17 A3001 RMK A01 T02380168  RH  068%=      5-min Rain = 0
KASU 141130Z 33002KT 24/17 A3001 RMK A01 T02360165  RH  068%=      5-min Rain = 0
KASU 141135Z 34002KT 23/16 A3001 RMK A01 T02330162  RH  067%=      5-min Rain = 0
KASU 141140Z 34001KT 23/16 A3001 RMK A01 T02320162  RH  068%=      5-min Rain = 0
KASU 141145Z 33002KT 23/16 A3002 RMK A01 T02320162  RH  068%=      5-min Rain = 0
KASU 141150Z 34002KT 23/16 A3001 RMK A01 T02310163  RH  069%=      5-min Rain = 0
KASU 141155Z 34001KT 23/16 A3002 RMK A01 T02310163  RH  069%=      5-min Rain = 0
KASU 141200Z 33002KT 23/16 A3002 RMK A01 T02310162  RH  068%=      5-min Rain = 0
KASU 141205Z 34004KT 23/16 A3002 RMK A01 T02300161  RH  068%=      5-min Rain = 0
KASU 141210Z 35002KT 23/17 A3002 RMK A01 T02290165  RH  071%=      5-min Rain = 0
KASU 141215Z 01001KT 23/17 A3002 RMK A01 T02290167  RH  071%=      5-min Rain = 0
KASU 141220Z 34001KT 23/16 A3003 RMK A01 T02280162  RH  070%=      5-min Rain = 0
KASU 141225Z 33002KT 23/16 A3003 RMK A01 T02280163  RH  070%=      5-min Rain = 0
KASU 141230Z 32001KT 23/16 A3003 RMK A01 T02290164  RH  070%=      5-min Rain = 0
KASU 141235Z 32000KT 23/17 A3003 RMK A01 T02300165  RH  070%=      5-min Rain = 0
KASU 141240Z 32001KT 23/17 A3003 RMK A01 T02320165  RH  069%=      5-min Rain = 0
KASU 141245Z 02000KT 23/17 A3004 RMK A01 T02330167  RH  070%=      5-min Rain = 0
KASU 141250Z 01001KT 23/17 A3004 RMK A01 T02340169  RH  070%=      5-min Rain = 0
KASU 141255Z 35002KT 24/17 A3004 RMK A01 T02380172  RH  070%=      5-min Rain = 0
KASU 141300Z 34002KT 24/17 A3004 RMK A01 T02400170  RH  068%=      5-min Rain = 0
KASU 141305Z 33001KT 24/17 A3004 RMK A01 T02440171  RH  067%=      5-min Rain = 0
KASU 141310Z 28001KT 25/17 A3004 RMK A01 T02480171  RH  066%=      5-min Rain = 0
KASU 141315Z 25001KT 25/17 A3004 RMK A01 T02500172  RH  065%=      5-min Rain = 0
KASU 141320Z 26002KT 25/17 A3004 RMK A01 T02480172  RH  066%=      5-min Rain = 0
KASU 141325Z 29001KT 25/17 A3004 RMK A01 T02500172  RH  065%=      5-min Rain = 0
KASU 141330Z 24001KT 25/17 A3004 RMK A01 T02530173  RH  064%=      5-min Rain = 0
KASU 141335Z 27002KT 26/17 A3004 RMK A01 T02550173  RH  064%=      5-min Rain = 0
KASU 141340Z 29003KT 26/17 A3005 RMK A01 T02570174  RH  064%=      5-min Rain = 0
KASU 141345Z 27003KT 26/18 A3005 RMK A01 T02600175  RH  063%=      5-min Rain = 0
KASU 141350Z 29004KT 26/17 A3006 RMK A01 T02640172  RH  060%=      5-min Rain = 0
KASU 141355Z 29004KT 27/17 A3006 RMK A01 T02690170  RH  058%=      5-min Rain = 0
KASU 141400Z 30005KT 27/17 A3006 RMK A01 T02700171  RH  058%=      5-min Rain = 0
KASU 141405Z 33005KT 27/17 A3006 RMK A01 T02710173  RH  058%=      5-min Rain = 0
KASU 141410Z 31003KT 27/17 A3006 RMK A01 T02720171  RH  057%=      5-min Rain = 0
KASU 141415Z 32004KT 28/17 A3006 RMK A01 T02780170  RH  054%=      5-min Rain = 0
KASU 141420Z 31005KT 28/17 A3006 RMK A01 T02800171  RH  054%=      5-min Rain = 0
KASU 141425Z 32005KT 28/17 A3006 RMK A01 T02830172  RH  054%=      5-min Rain = 0
KASU 141430Z 34008KT 28/17 A3007 RMK A01 T02840167  RH  051%=      5-min Rain = 0
KASU 141435Z 34006KT 29/17 A3007 RMK A01 T02870167  RH  051%=      5-min Rain = 0
KASU 141440Z 34007KT 29/17 A3007 RMK A01 T02910168  RH  050%=      5-min Rain = 0
KASU 141445Z 35006KT 30/17 A3007 RMK A01 T02960170  RH  049%=      5-min Rain = 0
KASU 141450Z 35007KT 30/17 A3007 RMK A01 T02950174  RH  050%=      5-min Rain = 0
KASU 141455Z 35006KT 30/18 A3007 RMK A01 T02960175  RH  051%=      5-min Rain = 0
KASU 141500Z 34005KT 30/17 A3008 RMK A01 T03000174  RH  049%=      5-min Rain = 0
KASU 141505Z 35006KT 30/17 A3008 RMK A01 T03010173  RH  049%=      5-min Rain = 0
KASU 141510Z 35007KT 31/17 A3008 RMK A01 T03060174  RH  047%=      5-min Rain = 0
KASU 141515Z 35006G12KT 31/17 A3009 RMK A01 T03060174  RH  047%=      5-min Rain = 0
KASU 141520Z 34008KT 31/18 A3009 RMK A01 T03050175  RH  048%=      5-min Rain = 0
KASU 141525Z 34009KT 30/18 A3009 RMK A01 T03030177  RH  049%=      5-min Rain = 0
KASU 141530Z 34007KT 31/18 A3009 RMK A01 T03050180  RH  050%=      5-min Rain = 0
KASU 141535Z 00007G12KT 30/18 A301 RMK A01 T03010181  RH  051%=      5-min Rain = 0
KASU 141540Z 34007G13KT 30/19 A301 RMK A01 T03040187  RH  052%=      5-min Rain = 0
KASU 141545Z 01006KT 31/19 A3009 RMK A01 T03050185  RH  051%=      5-min Rain = 0
KASU 141550Z 00006KT 31/18 A3009 RMK A01 T03070183  RH  050%=      5-min Rain = 0
KASU 141555Z 35006KT 31/19 A301 RMK A01 T03100185  RH  050%=      5-min Rain = 0
KASU 141600Z 34008KT 32/18 A301 RMK A01 T03180184  RH  048%=      5-min Rain = 0
KASU 141605Z 01006G12KT 32/19 A301 RMK A01 T03210185  RH  047%=      5-min Rain = 0
KASU 141610Z 36006KT 32/18 A301 RMK A01 T03160181  RH  047%=      5-min Rain = 0
KASU 141615Z 01006KT 32/18 A301 RMK A01 T03170181  RH  047%=      5-min Rain = 0
KASU 141620Z 34007KT 32/18 A301 RMK A01 T03210181  RH  046%=      5-min Rain = 0
KASU 141625Z 00005KT 32/18 A301 RMK A01 T03240182  RH  045%=      5-min Rain = 0
KASU 141630Z 35007KT 33/18 A301 RMK A01 T03270182  RH  045%=      5-min Rain = 0
KASU 141635Z 34007KT 33/18 A301 RMK A01 T03260179  RH  044%=      5-min Rain = 0
KASU 141640Z 33010KT 33/18 A301 RMK A01 T03260181  RH  044%=      5-min Rain = 0
KASU 141645Z 34008KT 33/18 A3009 RMK A01 T03270183  RH  045%=      5-min Rain = 0
KASU 141650Z 34008G13KT 33/18 A3009 RMK A01 T03330183  RH  043%=      5-min Rain = 0
KASU 141655Z 33008G15KT 33/18 A3009 RMK A01 T03300180  RH  043%=      5-min Rain = 0
KASU 141700Z 32007G13KT 33/18 A3009 RMK A01 T03270178  RH  043%=      5-min Rain = 0
KASU 141705Z 33006KT 33/18 A3009 RMK A01 T03250176  RH  043%=      5-min Rain = 0
KASU 141710Z 35004G12KT 33/18 A3009 RMK A01 T03280181  RH  044%=      5-min Rain = 0
KASU 141715Z 02007G20KT 33/18 A3009 RMK A01 T03340184  RH  043%=      5-min Rain = 0
KASU 141720Z 33011KT 34/18 A3009 RMK A01 T03350183  RH  043%=      5-min Rain = 0
KASU 141725Z 34010G16KT 33/18 A3009 RMK A01 T03340183  RH  043%=      5-min Rain = 0
KASU 141730Z 35009G14KT 33/18 A3009 RMK A01 T03330183  RH  043%=      5-min Rain = 0
KASU 141735Z 35008G15KT 34/18 A3009 RMK A01 T03360182  RH  042%=      5-min Rain = 0
KASU 141740Z 35008G15KT 34/18 A3009 RMK A01 T03400182  RH  041%=      5-min Rain = 0
KASU 141745Z 35008KT 34/18 A3009 RMK A01 T03400180  RH  041%=      5-min Rain = 0
KASU 141750Z 34008G13KT 34/18 A3009 RMK A01 T03360179  RH  041%=      5-min Rain = 0
KASU 141755Z 34010G15KT 34/18 A3008 RMK A01 T03360177  RH  041%=      5-min Rain = 0
KASU 141800Z 00007G12KT 34/18 A3008 RMK A01 T03350178  RH  041%=      5-min Rain = 0
KASU 141805Z 04007KT 33/18 A3008 RMK A01 T03270177  RH  043%=      5-min Rain = 0
KASU 141810Z 35005KT 34/18 A3008 RMK A01 T03370178  RH  041%=      5-min Rain = 0
KASU 141815Z 04006G14KT 34/18 A3008 RMK A01 T03380177  RH  041%=      5-min Rain = 0
KASU 141820Z 04005G10KT 34/18 A3008 RMK A01 T03370177  RH  041%=      5-min Rain = 0
KASU 141825Z 03006KT 34/18 A3008 RMK A01 T03440179  RH  040%=      5-min Rain = 0
KASU 141830Z 00008KT 35/18 A3007 RMK A01 T03450178  RH  039%=      5-min Rain = 0
KASU 141835Z 01006KT 35/18 A3007 RMK A01 T03450177  RH  039%=      5-min Rain = 0
KASU 141840Z 02005KT 35/18 A3006 RMK A01 T03490176  RH  038%=      5-min Rain = 0
KASU 141845Z 00005KT 35/18 A3006 RMK A01 T03450175  RH  038%=      5-min Rain = 0
KASU 141850Z 06009G14KT 35/17 A3006 RMK A01 T03460174  RH  038%=      5-min Rain = 0
KASU 141855Z 03007G12KT 34/17 A3006 RMK A01 T03430171  RH  038%=      5-min Rain = 0
KASU 141900Z 01006G12KT 35/17 A3006 RMK A01 T03460170  RH  037%=      5-min Rain = 0
KASU 141905Z 02006G11KT 35/17 A3006 RMK A01 T03470169  RH  036%=      5-min Rain = 0
KASU 141910Z 02004KT 35/17 A3006 RMK A01 T03490167  RH  036%=      5-min Rain = 0
KASU 141915Z 03005G11KT 35/17 A3005 RMK A01 T03500172  RH  036%=      5-min Rain = 0
KASU 141920Z 05007KT 35/17 A3005 RMK A01 T03510174  RH  037%=      5-min Rain = 0
KASU 141925Z 04007G14KT 35/17 A3005 RMK A01 T03490172  RH  037%=      5-min Rain = 0
KASU 141930Z 05007KT 35/17 A3004 RMK A01 T03490172  RH  037%=      5-min Rain = 0
KASU 141935Z 02007G14KT 36/17 A3004 RMK A01 T03580172  RH  035%=      5-min Rain = 0
KASU 141940Z 03008G14KT 36/17 A3003 RMK A01 T03560170  RH  035%=      5-min Rain = 0
KASU 141945Z 06006G11KT 36/17 A3003 RMK A01 T03560168  RH  035%=      5-min Rain = 0
KASU 141950Z 04007G12KT 36/17 A3003 RMK A01 T03580168  RH  034%=      5-min Rain = 0
KASU 141955Z 06007G12KT 36/17 A3002 RMK A01 T03600170  RH  034%=      5-min Rain = 0
KASU 142000Z 04004G9KT 36/17 A3002 RMK A01 T03580169  RH  034%=      5-min Rain = 0
KASU 142005Z 04006KT 36/17 A3002 RMK A01 T03610169  RH  034%=      5-min Rain = 0
KASU 142010Z 03008G13KT 37/17 A3001 RMK A01 T03670169  RH  033%=      5-min Rain = 0
KASU 142015Z 05006G14KT 36/17 A3001 RMK A01 T03640168  RH  033%=      5-min Rain = 0
KASU 142020Z 06009G18KT 37/17 A3001 RMK A01 T03660167  RH  032%=      5-min Rain = 0
KASU 142025Z 07010G16KT 36/17 A3001 RMK A01 T03640165  RH  032%=      5-min Rain = 0
KASU 142030Z 06010G15KT 36/17 A30 RMK A01 T03620167  RH  033%=      5-min Rain = 0
KASU 142035Z 10004G9KT 37/17 A30 RMK A01 T03650166  RH  032%=      5-min Rain = 0
KASU 142040Z 05007G13KT 37/17 A30 RMK A01 T03680165  RH  032%=      5-min Rain = 0
KASU 142045Z 07008G14KT 37/16 A30 RMK A01 T03670162  RH  031%=      5-min Rain = 0
KASU 142050Z 04008G13KT 37/16 A30 RMK A01 T03730164  RH  031%=      5-min Rain = 0
KASU 142055Z 05008KT 37/16 A30 RMK A01 T03690162  RH  031%=      5-min Rain = 0
KASU 142100Z 06006G12KT 37/16 A2999 RMK A01 T03690163  RH  031%=      5-min Rain = 0
KASU 142105Z 10010G15KT 37/17 A2999 RMK A01 T03730165  RH  031%=      5-min Rain = 0
KASU 142110Z 07009G15KT 36/16 A2999 RMK A01 T03620163  RH  032%=      5-min Rain = 0
KASU 142115Z 07007G12KT 37/16 A2999 RMK A01 T03650162  RH  032%=      5-min Rain = 0
KASU 142120Z 07008G13KT 37/16 A2999 RMK A01 T03670161  RH  031%=      5-min Rain = 0
KASU 142125Z 04006KT 37/16 A2999 RMK A01 T03680159  RH  030%=      5-min Rain = 0
KASU 142130Z 07007G13KT 37/16 A2998 RMK A01 T03740162  RH  030%=      5-min Rain = 0
KASU 142135Z 06006KT 37/16 A2998 RMK A01 T03670159  RH  031%=      5-min Rain = 0
KASU 142140Z 07004KT 36/16 A2998 RMK A01 T03600157  RH  031%=      5-min Rain = 0
KASU 142145Z 05008G13KT 37/16 A2998 RMK A01 T03670162  RH  031%=      5-min Rain = 0
KASU 142150Z 05006G11KT 36/16 A2998 RMK A01 T03590160  RH  032%=      5-min Rain = 0
KASU 142155Z 06004G10KT 36/16 A2998 RMK A01 T03630161  RH  032%=      5-min Rain = 0
KASU 142200Z 08010KT 37/16 A2998 RMK A01 T03670160  RH  031%=      5-min Rain = 0
KASU 142205Z 07007G12KT 37/16 A2998 RMK A01 T03650159  RH  031%=      5-min Rain = 0
KASU 142210Z 06008KT 36/16 A2998 RMK A01 T03610157  RH  031%=      5-min Rain = 0
KASU 142215Z 05007KT 36/16 A2999 RMK A01 T03580156  RH  032%=      5-min Rain = 0
KASU 142220Z 05006KT 36/16 A2999 RMK A01 T03560156  RH  032%=      5-min Rain = 0
KASU 142225Z 06003KT 36/16 A2998 RMK A01 T03590157  RH  032%=      5-min Rain = 0
KASU 142230Z 09008KT 36/16 A2998 RMK A01 T03590160  RH  032%=      5-min Rain = 0
KASU 142235Z 12007G12KT 36/16 A2998 RMK A01 T03590161  RH  033%=      5-min Rain = 0
KASU 142240Z 12006KT 36/16 A2999 RMK A01 T03580162  RH  033%=      5-min Rain = 0
KASU 142245Z 10005KT 36/16 A2998 RMK A01 T03590163  RH  033%=      5-min Rain = 0
KASU 142250Z 13006G11KT 36/16 A2999 RMK A01 T03560161  RH  033%=      5-min Rain = 0
KASU 142255Z 14008KT 36/16 A2999 RMK A01 T03560161  RH  033%=      5-min Rain = 0
KASU 142300Z 14007KT 36/16 A2999 RMK A01 T03560161  RH  033%=      5-min Rain = 0
KASU 142305Z 16007G12KT 36/16 A2999 RMK A01 T03580162  RH  033%=      5-min Rain = 0
KASU 142310Z 16009KT 36/16 A2999 RMK A01 T03550161  RH  033%=      5-min Rain = 0
KASU 142315Z 19012G17KT 35/16 A2999 RMK A01 T03460159  RH  034%=      5-min Rain = 0
KASU 142320Z 18012G17KT 34/16 A2999 RMK A01 T03410158  RH  035%=      5-min Rain = 0
KASU 142325Z 19011KT 34/16 A2999 RMK A01 T03390156  RH  035%=      5-min Rain = 0
KASU 142330Z 19012KT 34/16 A2999 RMK A01 T03370155  RH  035%=      5-min Rain = 0
KASU 142335Z 19013KT 34/16 A2999 RMK A01 T03350155  RH  036%=      5-min Rain = 0
KASU 142340Z 19013G18KT 33/15 A2999 RMK A01 T03320153  RH  036%=      5-min Rain = 0
KASU 142345Z 18012G17KT 33/15 A2999 RMK A01 T03310153  RH  036%=      5-min Rain = 0
KASU 142350Z 19011KT 33/15 A2999 RMK A01 T03300153  RH  036%=      5-min Rain = 0
KASU 142355Z 18011KT 33/16 A2998 RMK A01 T03300156  RH  037%=      5-min Rain = 0
KASU 150000Z 19009G14KT 33/16 A2998 RMK A01 T03300157  RH  037%=      5-min Rain = 0
KASU 150005Z 19009KT 33/16 A2998 RMK A01 T03290159  RH  038%=      5-min Rain = 0
KASU 150010Z 19009KT 33/16 A2998 RMK A01 T03290161  RH  038%=      5-min Rain = 0
KASU 150015Z 20011KT 33/16 A2998 RMK A01 T03280160  RH  038%=      5-min Rain = 0
KASU 150020Z 19011KT 33/16 A2998 RMK A01 T03260161  RH  039%=      5-min Rain = 0
KASU 150025Z 19011KT 33/16 A2998 RMK A01 T03250163  RH  040%=      5-min Rain = 0
KASU 150030Z 21009G14KT 33/16 A2998 RMK A01 T03250162  RH  040%=      5-min Rain = 0
KASU 150035Z 20009G14KT 32/16 A2998 RMK A01 T03220158  RH  039%=      5-min Rain = 0
KASU 150040Z 19010KT 32/16 A2999 RMK A01 T03190156  RH  039%=      5-min Rain = 0
KASU 150045Z 19008KT 32/16 A2999 RMK A01 T03170155  RH  039%=      5-min Rain = 0
KASU 150050Z 20007KT 32/16 A2999 RMK A01 T03160155  RH  040%=      5-min Rain = 0
KASU 150055Z 22006KT 32/16 A2999 RMK A01 T03170158  RH  040%=      5-min Rain = 0
KASU 150100Z 22006KT 31/16 A2999 RMK A01 T03140161  RH  042%=      5-min Rain = 0
KASU 150105Z 21006KT 31/16 A2999 RMK A01 T03120162  RH  042%=      5-min Rain = 0
KASU 150110Z 22005KT 31/16 A30 RMK A01 T03100162  RH  043%=      5-min Rain = 0
KASU 150115Z 21005KT 31/16 A30 RMK A01 T03090162  RH  043%=      5-min Rain = 0
KASU 150120Z 20005KT 31/16 A30 RMK A01 T03070162  RH  044%=      5-min Rain = 0
KASU 150125Z 21004KT 31/16 A30 RMK A01 T03060162  RH  044%=      5-min Rain = 0
KASU 150130Z 22004KT 30/16 A3001 RMK A01 T03040162  RH  044%=      5-min Rain = 0
KASU 150135Z 23005KT 30/16 A3001 RMK A01 T03030161  RH  044%=      5-min Rain = 0
KASU 150140Z 24004KT 30/16 A3001 RMK A01 T03020160  RH  044%=      5-min Rain = 0
KASU 150145Z 24004KT 30/16 A3002 RMK A01 T03000158  RH  044%=      5-min Rain = 0
KASU 150150Z 24003KT 30/16 A3002 RMK A01 T03000157  RH  044%=      5-min Rain = 0
KASU 150155Z 24005KT 30/16 A3002 RMK A01 T02980155  RH  044%=      5-min Rain = 0
KASU 150200Z 23003KT 30/15 A3002 RMK A01 T02970153  RH  044%=      5-min Rain = 0
KASU 150205Z 24004KT 30/15 A3002 RMK A01 T02960152  RH  044%=      5-min Rain = 0
KASU 150210Z 25003KT 30/15 A3003 RMK A01 T02950152  RH  044%=      5-min Rain = 0
KASU 150215Z 22003KT 29/15 A3003 RMK A01 T02940152  RH  044%=      5-min Rain = 0
KASU 150220Z 23004KT 29/15 A3003 RMK A01 T02930150  RH  044%=      5-min Rain = 0
KASU 150225Z 23005KT 29/15 A3004 RMK A01 T02920150  RH  044%=      5-min Rain = 0
KASU 150230Z 23003KT 29/15 A3004 RMK A01 T02910150  RH  044%=      5-min Rain = 0
KASU 150235Z 22002KT 29/15 A3004 RMK A01 T02900150  RH  045%=      5-min Rain = 0
KASU 150240Z 20003KT 29/15 A3004 RMK A01 T02880152  RH  046%=      5-min Rain = 0
KASU 150245Z 20004KT 29/15 A3004 RMK A01 T02850154  RH  047%=      5-min Rain = 0
KASU 150250Z 20004KT 29/15 A3004 RMK A01 T02850154  RH  047%=      5-min Rain = 0
KASU 150255Z 19004KT 28/16 A3005 RMK A01 T02810156  RH  049%=      5-min Rain = 0
KASU 150300Z 21003KT 28/15 A3005 RMK A01 T02820154  RH  048%=      5-min Rain = 0
KASU 150305Z 23003KT 28/16 A3006 RMK A01 T02830155  RH  048%=      5-min Rain = 0
KASU 150310Z 23003KT 28/16 A3006 RMK A01 T02830155  RH  048%=      5-min Rain = 0
KASU 150315Z 24004KT 28/16 A3006 RMK A01 T02830156  RH  048%=      5-min Rain = 0
KASU 150320Z 23004KT 28/16 A3007 RMK A01 T02820156  RH  048%=      5-min Rain = 0
KASU 150325Z 25003KT 28/16 A3007 RMK A01 T02820156  RH  049%=      5-min Rain = 0
KASU 150330Z 27003KT 28/16 A3007 RMK A01 T02810156  RH  049%=      5-min Rain = 0
KASU 150335Z 26002KT 28/16 A3008 RMK A01 T02810157  RH  049%=      5-min Rain = 0
KASU 150340Z 27003KT 28/16 A3008 RMK A01 T02810157  RH  049%=      5-min Rain = 0
KASU 150345Z 26003KT 28/16 A3008 RMK A01 T02800157  RH  049%=      5-min Rain = 0
KASU 150350Z 25003KT 28/16 A3008 RMK A01 T02810157  RH  049%=      5-min Rain = 0
KASU 150355Z 25002KT 28/16 A3008 RMK A01 T02800156  RH  049%=      5-min Rain = 0
KASU 150400Z 27002KT 28/16 A3008 RMK A01 T02800157  RH  049%=      5-min Rain = 0
KASU 150405Z 27002KT 28/16 A3008 RMK A01 T02800157  RH  050%=      5-min Rain = 0
KASU 150410Z 29002KT 28/16 A3008 RMK A01 T02800157  RH  050%=      5-min Rain = 0
KASU 150415Z 30001KT 28/16 A3008 RMK A01 T02800156  RH  049%=      5-min Rain = 0
KASU 150420Z 07001KT 28/16 A3008 RMK A01 T02780160  RH  051%=      5-min Rain = 0
KASU 150425Z 08006KT 27/16 A3009 RMK A01 T02720164  RH  054%=      5-min Rain = 0
KASU 150430Z 07005KT 27/16 A3009 RMK A01 T02710164  RH  054%=      5-min Rain = 0
KASU 150435Z 06003KT 27/17 A3009 RMK A01 T02680173  RH  059%=      5-min Rain = 0.01
KASU 150440Z 06004KT 26/18 A3009 RMK A01 T02600180  RH  065%=      5-min Rain = 0
KASU 150445Z 07006KT 25/18 A3009 RMK A01 T02520184  RH  070%=      5-min Rain = 0
KASU 150450Z 06005KT 25/19 A3009 RMK A01 T02470187  RH  073%=      5-min Rain = 0
KASU 150455Z 08005KT 25/19 A3009 RMK A01 T02450187  RH  074%=      5-min Rain = 0

Page generated in 0.0092 seconds.